Terminal Aerodrome Forecast
Issued by NWS

Home | Current Version | Previous Version | Text Only | Print | Product List | Glossary On
Versions: 1 2 3 4 5 6 7 8 9 10 11 12 13 14 15 16 17 18 19 20
791
FTUS46 KSEW 181914 AAA
TAFHQM
TAF AMD
KHQM 181914Z 1819/1918 17017G27KT 5SM -SHRA VCTS BKN040CB BKN080
      TEMPO 1819/1821 2SM TSRA BKN030CB
     FM182100 17015G25KT P6SM VCSH BKN040 BKN080
     FM190600 18012G20KT 5SM BR VCSH BKN040 BKN080
     FM191700 18010KT P6SM SCT050 SCT100=

USA.gov is the U.S. government's official web portal to all federal, state and local government web resources and services.